Latest Weather Observations for Bundaberg

IDQ60801

Issued at 9:05 am EST Thursday 23 October 2014 (issued every 30 minutes, with the page automatically refreshed every 10 minutes)

About weather observations | Map of weather stations | Latest weather observations for QLD | Other Formats
Station Details ID: 039128 Name: BUNDABERG AERO Lat: -24.91 Lon: 152.32 Height: 30.82 m
Data from the previous 72 hours. | See also: Recent months at Bundaberg
Date/Time
EST
Temp
°C
App
Temp
°C
Dew
Point
Rel
Hum
%
Delta-T
°C
Wind Press
QNH
hPa
Press
MSL
hPa
Rain
since 9 am
mm
Dir
 
Spd
km/h
Gust
km/h
Spd
kts
Gust
kts
23/09:00am 22.9 20.6 11.6 49 6.3 SSE 15 22 8 12 1022.0 1021.9 0.0
23/08:30am 21.8 19.2 10.6 49 6.1 SSE 15 22 8 12 1022.1 1022.0 0.0
23/08:00am 21.8 20.4 12.1 54 5.4 SE 11 20 6 11 1022.3 1022.2 0.0
23/07:30am 20.2 18.3 11.9 59 4.6 S 13 17 7 9 1022.0 1021.9 0.0
23/07:00am 18.6 16.9 12.6 68 3.3 S 13 19 7 10 1022.0 1021.9 0.0
23/06:30am 17.1 15.8 12.4 74 2.6 S 11 13 6 7 1021.9 1021.8 0.0
23/06:00am 14.9 13.3 11.7 81 1.7 S 11 13 6 7 1021.9 1021.8 0.0
23/05:30am 14.0 11.9 11.3 84 1.4 S 13 17 7 9 1021.6 1021.5 0.0
23/05:00am 13.8 11.7 11.3 85 1.3 S 13 15 7 8 1021.6 1021.5 0.0
23/04:30am 13.8 11.7 11.3 85 1.3 SSW 13 15 7 8 1021.5 1021.4 0.0
23/04:00am 14.0 12.3 11.2 83 1.5 SSW 11 15 6 8 1021.4 1021.3 0.0
23/03:30am 14.3 12.7 11.5 83 1.5 S 11 13 6 7 1021.1 1021.0 0.0
23/03:00am 14.0 12.2 11.0 82 1.6 SSW 11 15 6 8 1021.0 1020.9 0.0
23/02:30am 14.4 12.3 11.0 80 1.8 SSW 13 15 7 8 1021.1 1021.0 0.0
23/02:00am 14.5 12.4 11.1 80 1.8 SSW 13 15 7 8 1021.2 1021.1 0.0
23/01:30am 14.6 13.3 11.2 80 1.8 SSW 9 13 5 7 1021.5 1021.4 0.0
23/01:00am 14.7 13.0 11.1 79 1.9 SSW 11 13 6 7 1021.8 1021.7 0.0
23/12:30am 14.7 13.4 11.1 79 1.9 SSW 9 13 5 7 1022.1 1022.0 0.0
23/12:00am 15.3 14.0 11.1 76 2.2 S 9 13 5 7 1022.2 1022.1 0.0
 
Date/Time
EST
Temp
°C
App
Temp
°C
Dew
Point
Rel
Hum
%
Delta-T
°C
Wind Press
QNH
hPa
Press
MSL
hPa
Rain
since 9 am
mm
Dir
 
Spd
km/h
Gust
km/h
Spd
kts
Gust
kts
22/11:30pm 15.7 14.7 11.1 74 2.5 S 7 11 4 6 1022.4 1022.3 0.0
22/11:00pm 16.3 14.6 11.2 72 2.7 SSE 11 17 6 9 1022.5 1022.4 0.0
22/10:30pm 15.7 13.2 11.1 74 2.5 SSE 15 19 8 10 1022.5 1022.4 0.0
22/10:00pm 16.2 13.4 11.2 72 2.7 SE 17 19 9 10 1022.6 1022.5 0.0
22/09:30pm 16.4 14.3 11.1 71 2.8 SE 13 17 7 9 1022.6 1022.5 0.0
22/09:00pm 18.0 15.6 11.3 65 3.6 SSE 15 20 8 11 1022.7 1022.6 0.0
22/08:30pm 18.0 14.8 11.1 64 3.7 SE 19 22 10 12 1022.6 1022.5 0.0
22/08:00pm 18.5 15.1 10.6 60 4.2 SE 19 24 10 13 1022.5 1022.4 0.0
22/07:30pm 19.4 15.1 10.7 57 4.7 SE 24 30 13 16 1022.2 1022.1 0.0
22/07:00pm 19.9 15.6 11.9 60 4.4 ESE 26 33 14 18 1022.0 1021.9 0.0
22/06:30pm 20.4 15.9 11.3 56 5.0 ESE 26 35 14 19 1021.8 1021.7 0.0
22/06:00pm 20.8 16.2 11.2 54 5.3 ESE 26 39 14 21 1021.5 1021.4 0.0
22/05:58pm 20.9 16.0 11.3 54 5.3 ESE 28 46 15 25 1021.5 1021.4 0.0
22/05:30pm 21.9 16.2 11.3 51 5.9 ESE 32 41 17 22 1021.2 1021.1 0.0
22/05:00pm 22.8 17.1 11.2 48 6.4 E 32 43 17 23 1020.8 1020.7 0.0
22/04:30pm 23.4 17.1 11.1 46 6.9 ESE 35 48 19 26 1020.5 1020.4 0.0
22/04:00pm 24.0 17.7 11.0 44 7.2 ESE 35 46 19 25 1020.2 1020.1 0.0
22/03:30pm 24.1 17.8 11.1 44 7.3 E 35 48 19 26 1020.2 1020.1 0.0
22/03:00pm 24.7 19.2 12.3 46 7.1 ESE 33 44 18 24 1020.3 1020.2 0.0
22/02:30pm 25.2 19.3 10.6 40 8.2 ESE 32 41 17 22 1020.3 1020.2 0.0
22/02:04pm 25.7 20.1 11.5 41 8.1 E 32 50 17 27 1020.6 1020.5 0.0
22/02:00pm 24.3 18.5 10.9 43 7.5 E 32 43 17 23 1020.7 1020.6 0.0
22/01:30pm 26.2 20.8 10.8 38 8.7 ESE 30 44 16 24 1021.1 1021.0 0.0
22/01:00pm 26.5 20.9 11.4 39 8.6 E 32 50 17 27 1021.3 1021.2 0.0
22/12:56pm 25.5 19.5 10.1 38 8.5 E 32 50 17 27 1021.3 1021.2 0.0
22/12:30pm 25.9 20.1 9.3 35 9.1 E 30 43 16 23 1021.7 1021.6 0.0
22/12:07pm 26.0 20.8 10.2 37 8.8 ESE 28 46 15 25 1022.0 1021.9 0.0
22/12:00pm 26.0 21.4 11.0 39 8.4 ESE 26 41 14 22 1022.3 1022.2 0.0
22/11:30am 26.1 20.5 8.6 33 9.5 SE 28 37 15 20 1022.8 1022.7 0.0
22/11:00am 24.6 20.2 10.5 41 7.8 SSE 24 41 13 22 1023.3 1023.2 0.0
22/10:30am 23.8 19.5 10.8 44 7.2 SSE 24 39 13 21 1023.6 1023.5 0.0
22/10:00am 23.6 19.5 11.6 47 6.7 SSE 24 37 13 20 1024.0 1023.9 0.0
22/09:30am 21.8 17.5 12.1 54 5.5 SSE 26 35 14 19 1024.3 1024.2 0.0
22/09:00am 23.0 20.7 14.0 57 5.2 SE 19 28 10 15 1024.3 1024.2 0.2
22/08:30am 21.2 18.5 13.4 61 4.5 SSE 20 28 11 15 1024.3 1024.2 0.2
22/08:00am 20.1 18.7 14.5 70 3.3 S 15 22 8 12 1024.3 1024.2 0.2
22/07:30am 18.6 17.4 15.1 80 2.0 SSE 15 22 8 12 1024.3 1024.2 0.2
22/07:00am 17.7 16.6 15.3 86 1.4 S 15 20 8 11 1024.1 1024.0 0.2
22/06:30am 17.1 16.4 15.4 90 1.0 SSW 13 15 7 8 1023.8 1023.7 0.2
22/06:00am 16.2 15.7 14.9 92 0.7 SSW 11 17 6 9 1023.5 1023.4 0.2
22/05:30am 16.1 15.6 14.8 92 0.7 S 11 15 6 8 1023.0 1022.9 0.2
22/05:00am 16.2 15.6 14.7 91 0.9 S 11 17 6 9 1022.8 1022.7 0.2
22/04:30am 16.5 16.0 15.0 91 0.9 S 11 17 6 9 1022.7 1022.6 0.2
22/04:00am 16.6 16.2 15.1 91 0.9 S 11 15 6 8 1022.7 1022.6 0.2
22/03:30am 16.9 16.6 15.4 91 0.9 S 11 17 6 9 1022.7 1022.6 0.2
22/03:00am 17.0 16.7 15.5 91 0.9 S 11 17 6 9 1022.8 1022.7 0.2
22/02:30am 17.2 16.5 15.5 90 1.0 S 13 19 7 10 1023.0 1022.9 0.2
22/02:00am 17.0 16.7 15.5 91 0.9 S 11 17 6 9 1023.3 1023.2 0.2
22/01:30am 17.1 16.2 15.8 92 0.8 S 15 20 8 11 1023.6 1023.5 0.2
22/01:00am 17.3 16.5 16.0 92 0.8 S 15 22 8 12 1023.9 1023.8 0.2
22/12:30am 17.7 17.4 16.4 92 0.8 S 13 20 7 11 1024.1 1024.0 0.2
22/12:00am 18.1 17.7 16.3 89 1.1 S 13 17 7 9 1024.6 1024.5 0.2
 
Date/Time
EST
Temp
°C
App
Temp
°C
Dew
Point
Rel
Hum
%
Delta-T
°C
Wind Press
QNH
hPa
Press
MSL
hPa
Rain
since 9 am
mm
Dir
 
Spd
km/h
Gust
km/h
Spd
kts
Gust
kts
21/11:30pm 18.4 18.0 16.2 87 1.3 SSE 13 17 7 9 1024.9 1024.8 0.2
21/11:00pm 18.7 18.0 16.5 87 1.3 SSE 15 20 8 11 1025.2 1025.1 0.2
21/10:30pm 18.8 18.1 17.3 91 0.9 SSE 17 24 9 13 1025.5 1025.4 0.2
21/10:00pm 19.1 19.3 16.7 86 1.4 S 11 17 6 9 1025.4 1025.3 0.0
21/09:30pm 19.4 19.5 16.4 83 1.8 S 11 15 6 8 1025.5 1025.4 0.0
21/09:00pm 20.0 19.8 16.6 81 2.0 SSE 13 17 7 9 1025.4 1025.3 0.0
21/08:30pm 19.7 19.8 16.5 82 1.9 S 11 15 6 8 1025.3 1025.2 0.0
21/08:00pm 19.9 19.2 16.5 81 2.0 SSE 15 20 8 11 1025.1 1025.0 0.0
21/07:30pm 20.0 19.0 16.6 81 2.1 SSE 17 22 9 12 1024.9 1024.8 0.0
21/07:00pm 20.3 19.9 16.1 77 2.5 SSE 13 19 7 10 1024.6 1024.5 0.0
21/06:30pm 21.4 19.1 15.7 70 3.4 SE 22 32 12 17 1024.3 1024.2 0.0
21/06:00pm 22.2 19.9 14.6 62 4.5 ESE 20 28 11 15 1023.8 1023.7 0.0
21/05:30pm 22.7 19.5 14.3 59 4.9 ESE 24 32 13 17 1023.8 1023.7 0.0
21/05:00pm 22.9 20.1 14.2 58 5.1 E 22 35 12 19 1023.4 1023.3 0.0
21/04:30pm 23.3 19.3 14.0 56 5.5 ESE 28 33 15 18 1023.2 1023.1 0.0
21/04:00pm 23.6 18.6 13.5 53 5.9 ESE 32 39 17 21 1023.0 1022.9 0.0
21/03:30pm 23.7 19.1 13.6 53 5.9 ESE 30 43 16 23 1022.9 1022.8 0.0
21/03:00pm 24.1 19.3 13.0 50 6.4 ESE 30 41 16 22 1022.9 1022.8 0.0
21/02:30pm 25.3 20.9 12.9 46 7.2 ESE 28 39 15 21 1022.9 1022.8 0.0
21/02:00pm 24.7 19.6 13.0 48 6.8 ESE 32 43 17 23 1023.0 1022.9 0.0
21/01:35pm 24.8 19.4 12.1 45 7.3 ESE 32 50 17 27 1023.1 1023.0 0.0
21/01:30pm 25.2 19.6 12.1 44 7.5 ESE 33 48 18 26 1023.1 1023.0 0.0
21/01:00pm 26.0 20.4 12.1 42 8.0 E 33 44 18 24 1023.4 1023.3 0.0
21/12:30pm 25.6 20.6 12.1 43 7.7 ESE 30 43 16 23 1023.9 1023.8 0.0
21/12:00pm 26.0 20.3 11.7 41 8.1 ESE 33 41 18 22 1024.3 1024.2 0.0
21/11:41am 27.0 21.9 11.9 39 8.7 ESE 30 52 16 28 1024.5 1024.4 0.0
21/11:30am 26.4 20.9 11.7 40 8.4 ESE 32 43 17 23 1024.6 1024.5 0.0
21/11:14am 25.5 20.3 11.7 42 7.9 E 30 48 16 26 1024.7 1024.6 0.0
21/11:00am 25.4 20.5 11.2 41 8.0 ESE 28 43 15 23 1025.0 1024.9 0.0
21/10:30am 26.0 21.0 11.0 39 8.5 ESE 28 39 15 21 1025.2 1025.1 0.0
21/10:04am 26.0 21.0 11.0 39 8.5 ESE 28 46 15 25 1025.4 1025.3 0.0
21/10:00am 25.4 19.9 10.4 39 8.3 ESE 30 44 16 24 1025.5 1025.4 0.0
21/09:30am 24.8 19.6 11.7 44 7.4 ESE 30 46 16 25 1025.8 1025.7 0.0
21/09:00am 23.7 19.0 10.7 44 7.2 ESE 26 35 14 19 1026.0 1025.9 0.0
21/08:30am 23.4 17.9 10.5 44 7.1 ESE 30 39 16 21 1025.7 1025.6 0.0
21/08:00am 23.5 19.5 11.9 48 6.5 SE 24 33 13 18 1025.7 1025.6 0.0
21/07:30am 22.1 19.5 13.2 57 5.1 SE 19 26 10 14 1025.6 1025.5 0.0
21/07:00am 20.2 17.9 12.9 63 4.1 SSE 17 20 9 11 1025.3 1025.2 0.0
21/06:30am 18.4 17.3 13.0 71 3.0 S 11 15 6 8 1025.0 1024.9 0.0
21/06:00am 16.2 15.3 12.7 80 1.9 SSE 9 15 5 8 1024.7 1024.6 0.0
21/05:30am 15.5 13.8 12.4 82 1.7 SSE 13 17 7 9 1024.4 1024.3 0.0
21/05:00am 15.8 14.1 12.4 80 1.9 SSE 13 17 7 9 1024.0 1023.9 0.0
21/04:30am 16.5 14.5 12.7 78 2.1 SSE 15 20 8 11 1023.7 1023.6 0.0
21/04:00am 17.0 14.8 13.3 79 2.1 SSE 17 22 9 12 1023.4 1023.3 0.0
21/03:30am 16.0 14.4 12.9 82 1.7 SSE 13 19 7 10 1023.6 1023.5 0.0
21/03:00am 15.9 14.4 13.0 83 1.6 SSE 13 20 7 11 1023.6 1023.5 0.0
21/02:30am 16.0 14.4 12.9 82 1.7 SSE 13 17 7 9 1023.7 1023.6 0.0
21/02:00am 16.0 14.4 12.9 82 1.7 SSE 13 19 7 10 1023.8 1023.7 0.0
21/01:30am 15.9 14.7 12.8 82 1.7 SSE 11 15 6 8 1024.0 1023.9 0.0
21/01:00am 16.5 15.4 13.2 81 1.8 SSE 11 15 6 8 1024.3 1024.2 0.0
21/12:30am 15.7 14.4 12.6 82 1.7 SSE 11 17 6 9 1024.5 1024.4 0.0
21/12:00am 16.1 14.8 12.5 79 2.0 SSE 11 15 6 8 1024.8 1024.7 0.0
 
Date/Time
EST
Temp
°C
App
Temp
°C
Dew
Point
Rel
Hum
%
Delta-T
°C
Wind Press
QNH
hPa
Press
MSL
hPa
Rain
since 9 am
mm
Dir
 
Spd
km/h
Gust
km/h
Spd
kts
Gust
kts
20/11:30pm 16.8 15.2 12.7 77 2.3 SSE 13 17 7 9 1025.1 1025.0 0.0
20/11:00pm 16.7 15.5 12.7 77 2.2 S 11 15 6 8 1025.3 1025.2 0.0
20/10:30pm 16.9 15.2 12.6 76 2.4 S 13 17 7 9 1025.4 1025.3 0.0
20/10:00pm 17.4 16.3 13.1 76 2.4 S 11 15 6 8 1025.3 1025.2 0.0
20/09:30pm 17.2 16.7 12.7 75 2.5 S 7 9 4 5 1025.1 1025.0 0.0
20/09:00pm 18.7 18.4 13.3 71 3.0 SE 7 9 4 5 1024.7 1024.6 0.0
20/08:30pm 19.3 17.5 13.2 68 3.5 ESE 15 17 8 9 1024.3 1024.2 0.0
20/08:00pm 19.5 17.5 12.7 65 3.8 E 15 19 8 10 1023.9 1023.8 0.0
20/07:30pm 20.2 18.3 12.9 63 4.1 E 15 19 8 10 1023.5 1023.4 0.0
20/07:00pm 20.4 18.4 12.6 61 4.4 E 15 20 8 11 1023.2 1023.1 0.0
20/06:30pm 21.0 19.4 12.9 60 4.6 E 13 19 7 10 1022.7 1022.6 0.0
20/06:00pm 21.6 19.7 13.0 58 4.9 ENE 15 19 8 10 1022.2 1022.1 0.0
20/05:30pm 22.4 19.4 12.6 54 5.6 ENE 20 26 11 14 1021.8 1021.7 0.0
20/05:00pm 23.2 20.1 12.2 50 6.2 ENE 20 26 11 14 1021.5 1021.4 0.0
20/04:30pm 24.0 20.8 12.0 47 6.8 E 20 33 11 18 1021.3 1021.2 0.0
20/04:00pm 24.2 20.6 11.9 46 7.0 ENE 22 30 12 16 1021.1 1021.0 0.0
20/03:30pm 24.5 20.5 11.8 45 7.2 E 24 30 13 16 1021.0 1020.9 0.0
20/03:00pm 25.0 21.0 11.9 44 7.4 E 24 35 13 19 1020.8 1020.7 0.0
20/02:30pm 25.2 21.2 11.7 43 7.7 E 24 33 13 18 1021.0 1020.9 0.0
20/02:00pm 25.1 21.0 11.6 42 7.6 E 24 33 13 18 1021.5 1021.4 0.0
20/01:30pm 25.6 21.6 11.7 42 7.9 E 24 35 13 19 1021.8 1021.7 0.0
20/01:00pm 25.4 21.5 10.8 40 8.2 E 22 37 12 20 1022.2 1022.1 0.0
20/12:30pm 25.5 21.2 10.9 40 8.2 E 24 33 13 18 1022.6 1022.5 0.0
20/12:00pm 25.6 22.1 11.0 40 8.2 E 20 33 11 18 1022.9 1022.8 0.0
20/11:30am 24.6 21.0 10.5 41 7.8 E 20 32 11 17 1023.4 1023.3 0.0
20/11:00am 24.5 21.0 10.8 42 7.6 E 20 32 11 17 1023.9 1023.8 0.0
20/10:30am 24.3 19.7 9.8 40 7.9 E 24 33 13 18 1024.4 1024.3 0.0
20/10:00am 24.5 20.2 10.8 42 7.6 ESE 24 39 13 21 1024.8 1024.7 0.0
20/09:30am 23.2 19.1 8.5 39 7.8 ESE 20 32 11 17 1025.1 1025.0 0.0

Other Formats:

Comma delimited format used in spreadsheet applications
http://www.bom.gov.au/fwo/IDQ60801/IDQ60801.94387.axf

JavaScript Object Notation format (JSON) in row-major order
http://www.bom.gov.au/fwo/IDQ60801/IDQ60801.94387.json